This is the latest recevied weather packets stored in our database for station/object EA5JMY-10. If no packets are shown the sender has not sent any weather packets the latest 10 day(s).
| Time | Temp. | Humidity | Pressure | Rain* | Wind** | Luminosity | Snow |
|---|---|---|---|---|---|---|---|
| 1777667759 | 20° C | 69% | 1025.3 hPa | - | - | - | - |
| 1777666859 | 20° C | 69% | 1025.1 hPa | - | - | - | - |
| 1777665959 | 20° C | 69% | 1024.9 hPa | - | - | - | - |
| 1777665059 | 20° C | 69% | 1024.7 hPa | - | - | - | - |
| 1777664159 | 20° C | 70% | 1024.6 hPa | - | - | - | - |
| 1777663259 | 20° C | 69% | 1024.3 hPa | - | - | - | - |
| 1777662359 | 20° C | 69% | 1024.1 hPa | - | - | - | - |
| 1777661459 | 20.56° C | 68% | 1023.9 hPa | - | - | - | - |
| 1777660558 | 20.56° C | 67% | 1024.1 hPa | - | - | - | - |
| 1777659658 | 20.56° C | 67% | 1024 hPa | - | - | - | - |
| 1777658758 | 20.56° C | 65% | 1023.8 hPa | - | - | - | - |
| 1777657858 | 21.67° C | 62% | 1023.6 hPa | - | - | - | - |
| 1777656958 | 21.11° C | 64% | 1023.5 hPa | - | - | - | - |
| 1777656058 | 20.56° C | 65% | 1023.4 hPa | - | - | - | - |
| 1777655158 | 21.11° C | 65% | 1023.3 hPa | - | - | - | - |
| 1777654258 | 21.11° C | 65% | 1023.3 hPa | - | - | - | - |
| 1777653358 | 21.67° C | 63% | 1023.2 hPa | - | - | - | - |
| 1777652457 | 21.67° C | 62% | 1023.2 hPa | - | - | - | - |
| 1777651557 | 21.67° C | 63% | 1023.2 hPa | - | - | - | - |
| 1777650657 | 21.67° C | 62% | 1023.2 hPa | - | - | - | - |
| 1777649757 | 21.67° C | 62% | 1023 hPa | - | - | - | - |
| 1777648857 | 22.22° C | 59% | 1023.1 hPa | - | - | - | - |
| 1777647957 | 22.78° C | 57% | 1023.1 hPa | - | - | - | - |
| 1777647057 | 22.78° C | 55% | 1023 hPa | - | - | - | - |
| 1777646157 | 22.22° C | 58% | 1023 hPa | - | - | - | - |
* Rain since midnight (hover to see other rain measurements)
** Current wind speed in m/s (hover to see current wind gust speed)